createdAt,value
2022-11-14T00:00:17.034Z,3.66
2022-11-14T00:04:38.775Z,3.68
2022-11-14T00:09:01.562Z,3.46
2022-11-14T00:13:23.007Z,3.41
2022-11-14T00:17:44.460Z,3.36
2022-11-14T00:22:06.015Z,3.26
2022-11-14T00:26:29.062Z,3.34
2022-11-14T00:30:50.391Z,3.07
2022-11-14T00:35:11.783Z,3.07
2022-11-14T00:39:33.449Z,3.07
2022-11-14T00:43:56.471Z,3.04
2022-11-14T00:48:17.965Z,3.12
2022-11-14T00:52:39.098Z,3.05
2022-11-14T00:57:00.673Z,3.18
2022-11-14T01:01:23.975Z,3.38
2022-11-14T01:05:46.520Z,3.49
2022-11-14T01:10:08.576Z,3.23
2022-11-14T01:14:30.213Z,3.30
2022-11-14T01:18:52.972Z,3.26
2022-11-14T01:23:15.454Z,3.08
2022-11-14T01:27:37.022Z,2.92
2022-11-14T01:31:58.146Z,2.83
2022-11-14T01:36:21.031Z,2.77
2022-11-14T01:40:42.399Z,2.67
2022-11-14T01:45:18.737Z,2.61
2022-11-14T01:49:42.385Z,2.59
2022-11-14T01:54:13.977Z,2.50
2022-11-14T01:58:36.735Z,2.42
2022-11-14T02:02:58.495Z,2.52
2022-11-14T02:07:19.970Z,2.80
2022-11-14T02:11:44.805Z,2.97
2022-11-14T02:16:06.869Z,3.04
2022-11-14T02:20:32.647Z,3.17
2022-11-14T02:24:53.898Z,3.13
2022-11-14T02:29:15.022Z,2.99
2022-11-14T02:33:36.158Z,3.07
2022-11-14T02:37:58.699Z,3.43
2022-11-14T02:42:19.899Z,3.45
2022-11-14T02:46:41.104Z,3.45
2022-11-14T02:51:02.394Z,3.92
2022-11-14T02:55:24.882Z,4.12
2022-11-14T02:59:46.069Z,4.11
2022-11-14T03:04:07.264Z,4.11
2022-11-14T03:08:29.021Z,4.04
2022-11-14T03:12:55.611Z,3.92
2022-11-14T03:17:17.219Z,3.89
2022-11-14T03:21:38.463Z,3.97
2022-11-14T03:26:01.169Z,4.15
2022-11-14T03:30:23.997Z,4.25
2022-11-14T03:34:45.815Z,4.24
2022-11-14T03:39:07.188Z,4.39
2022-11-14T03:43:31.190Z,4.42
2022-11-14T03:47:55.594Z,4.42
2022-11-14T03:52:16.711Z,4.42
2022-11-14T03:56:38.008Z,4.27
2022-11-14T04:00:59.441Z,4.18
2022-11-14T04:05:22.448Z,4.20
2022-11-14T04:09:44.994Z,4.14
2022-11-14T04:14:06.259Z,4.14
2022-11-14T04:18:28.003Z,4.26
2022-11-14T04:22:50.945Z,4.46
2022-11-14T04:27:12.453Z,4.52
2022-11-14T04:31:33.605Z,4.49
2022-11-14T04:35:55.129Z,4.60
2022-11-14T04:40:17.991Z,4.47
2022-11-14T04:44:39.107Z,4.58
2022-11-14T04:49:00.788Z,5.01
2022-11-14T04:53:22.065Z,5.18
2022-11-14T04:57:44.500Z,5.06
2022-11-14T05:02:05.722Z,5.23
2022-11-14T05:06:27.166Z,5.27
2022-11-14T05:10:48.698Z,5.21
2022-11-14T05:15:11.869Z,5.32
2022-11-14T05:19:33.306Z,5.23
2022-11-14T05:23:54.425Z,5.21
2022-11-14T05:28:15.976Z,5.26
2022-11-14T05:32:38.711Z,5.31
2022-11-14T05:37:00.151Z,5.16
2022-11-14T05:41:21.742Z,5.03
2022-11-14T05:45:43.162Z,5.02
2022-11-14T05:50:06.578Z,4.92
2022-11-14T05:54:28.040Z,4.82
2022-11-14T05:58:49.556Z,4.79
2022-11-14T06:03:11.133Z,4.82
2022-11-14T06:07:33.881Z,4.82
2022-11-14T06:11:55.317Z,4.85
2022-11-14T06:16:18.429Z,4.76
2022-11-14T06:20:40.024Z,4.77
2022-11-14T06:25:02.926Z,4.80
2022-11-14T06:29:24.048Z,4.85
2022-11-14T06:33:45.549Z,4.73
2022-11-14T06:38:07.165Z,4.59
2022-11-14T06:42:30.179Z,4.35
2022-11-14T06:46:51.330Z,4.30
2022-11-14T06:51:13.583Z,4.48
2022-11-14T06:55:34.765Z,4.60
2022-11-14T06:59:57.943Z,4.66
2022-11-14T07:04:19.294Z,4.83
2022-11-14T07:08:40.743Z,4.93
2022-11-14T07:13:02.271Z,4.94
2022-11-14T07:17:28.518Z,5.04
2022-11-14T07:21:52.496Z,5.43
2022-11-14T07:26:14.069Z,5.64
2022-11-14T07:30:35.493Z,5.80
2022-11-14T07:35:02.033Z,5.83
2022-11-14T07:39:23.773Z,6.24
2022-11-14T07:43:45.603Z,6.42
2022-11-14T07:48:07.124Z,6.76
2022-11-14T07:52:31.678Z,6.94
2022-11-14T07:56:52.904Z,7.00
2022-11-14T08:01:15.010Z,7.01
2022-11-14T08:05:36.755Z,7.36
2022-11-14T08:10:00.054Z,7.28
2022-11-14T08:14:21.338Z,8.21
2022-11-14T08:18:42.879Z,6.96
2022-11-14T08:23:05.641Z,7.50
2022-11-14T08:27:28.303Z,7.87
2022-11-14T08:31:53.468Z,8.21
2022-11-14T08:36:17.575Z,8.13
2022-11-14T08:40:39.430Z,8.19
2022-11-14T08:45:02.034Z,7.45
2022-11-14T08:49:23.835Z,7.59
2022-11-14T08:53:45.282Z,7.52
2022-11-14T08:58:06.613Z,7.04
2022-11-14T09:02:29.196Z,7.55
2022-11-14T09:06:51.959Z,8.22
2022-11-14T09:11:18.887Z,8.51
2022-11-14T09:15:40.771Z,8.34
2022-11-14T09:20:03.913Z,8.54
2022-11-14T09:24:25.353Z,8.43
2022-11-14T09:28:47.028Z,8.18
2022-11-14T09:33:11.877Z,7.86
2022-11-14T09:37:35.034Z,7.89
2022-11-14T09:42:17.579Z,8.04
2022-11-14T09:46:45.225Z,7.73
2022-11-14T09:51:10.587Z,7.77
2022-11-14T09:55:37.342Z,7.78
2022-11-14T09:59:59.241Z,7.79
2022-11-14T10:04:30.378Z,7.97
2022-11-14T10:09:05.607Z,8.12
2022-11-14T10:13:48.780Z,8.07
2022-11-14T10:18:34.410Z,8.09
2022-11-14T10:23:17.334Z,8.14
2022-11-14T10:27:44.745Z,8.00
2022-11-14T10:32:21.807Z,7.98
2022-11-14T10:36:54.655Z,8.06
2022-11-14T10:41:34.779Z,7.92
2022-11-14T10:46:06.238Z,7.95
2022-11-14T10:50:39.115Z,7.84
2022-11-14T10:55:06.414Z,7.99
2022-11-14T10:59:29.010Z,8.13
2022-11-14T11:03:50.636Z,8.20
2022-11-14T11:08:46.938Z,8.39
2022-11-14T11:13:14.190Z,8.46
2022-11-14T11:17:41.780Z,8.53
2022-11-14T11:22:05.364Z,8.59
2022-11-14T11:26:29.872Z,8.80
2022-11-14T11:30:57.049Z,8.83
2022-11-14T11:35:18.910Z,9.02
2022-11-14T11:39:47.460Z,9.34
2022-11-14T11:44:17.916Z,9.40
2022-11-14T11:48:40.601Z,9.19
2022-11-14T11:53:12.741Z,9.18
2022-11-14T11:57:39.564Z,9.28
2022-11-14T12:02:05.425Z,9.59
2022-11-14T12:06:31.674Z,10.16
2022-11-14T12:10:54.940Z,10.45
2022-11-14T12:15:23.141Z,9.80
2022-11-14T12:20:00.632Z,9.59
2022-11-14T12:24:59.126Z,9.57
2022-11-14T12:29:37.018Z,9.45
2022-11-14T12:34:02.074Z,9.35
2022-11-14T12:38:25.598Z,9.24
2022-11-14T12:42:49.593Z,9.14
2022-11-14T12:47:16.038Z,9.05
2022-11-14T12:51:52.379Z,9.24
2022-11-14T12:56:40.873Z,9.29
2022-11-14T13:01:13.402Z,9.24
2022-11-14T13:05:50.512Z,9.48
2022-11-14T13:10:27.997Z,9.56
2022-11-14T13:15:10.256Z,9.50
2022-11-14T13:19:49.828Z,9.48
2022-11-14T13:24:12.102Z,9.54
2022-11-14T13:28:48.899Z,9.42
2022-11-14T13:33:43.275Z,9.34
2022-11-14T13:38:26.697Z,9.25
2022-11-14T13:42:55.040Z,9.12
2022-11-14T13:47:37.064Z,9.10
2022-11-14T13:52:00.406Z,9.08
2022-11-14T13:56:33.298Z,9.04
2022-11-14T14:01:13.176Z,9.08
2022-11-14T14:05:49.620Z,8.97
2022-11-14T14:10:26.091Z,8.94
2022-11-14T14:15:03.973Z,8.91
2022-11-14T14:19:44.436Z,8.87
2022-11-14T14:24:16.825Z,8.82
2022-11-14T14:28:48.455Z,8.83
2022-11-14T14:33:14.732Z,8.85
2022-11-14T14:37:36.093Z,8.81
2022-11-14T14:41:59.395Z,8.78
2022-11-14T14:46:34.162Z,8.73
2022-11-14T14:50:57.304Z,8.74
2022-11-14T14:55:21.629Z,8.68
2022-11-14T14:59:43.119Z,8.62
2022-11-14T15:04:09.103Z,8.65
2022-11-14T15:08:36.380Z,8.60
2022-11-14T15:12:59.191Z,8.58
2022-11-14T15:17:21.244Z,8.60
2022-11-14T15:21:44.374Z,8.53
2022-11-14T15:26:14.754Z,8.53
2022-11-14T15:30:36.653Z,8.52
2022-11-14T15:35:25.888Z,8.45
2022-11-14T15:39:49.590Z,8.48
2022-11-14T15:44:31.073Z,8.46
2022-11-14T15:48:53.119Z,8.47
2022-11-14T15:53:22.965Z,8.45
2022-11-14T15:57:52.002Z,8.42
2022-11-14T16:02:30.883Z,8.39
2022-11-14T16:06:52.608Z,8.41
2022-11-14T16:11:14.571Z,8.40
2022-11-14T16:15:38.010Z,8.39
2022-11-14T16:19:59.989Z,8.35
2022-11-14T16:24:22.794Z,8.38
2022-11-14T16:28:44.417Z,8.39
2022-11-14T16:33:07.277Z,8.37
2022-11-14T16:37:28.816Z,8.38
2022-11-14T16:41:50.186Z,8.37
2022-11-14T16:46:12.830Z,8.31
2022-11-14T16:50:38.300Z,8.37
2022-11-14T16:54:59.999Z,8.41
2022-11-14T16:59:21.395Z,8.36
2022-11-14T17:03:43.224Z,8.38
2022-11-14T17:08:06.412Z,8.34
2022-11-14T17:12:28.500Z,8.36
2022-11-14T17:16:49.961Z,8.36
2022-11-14T17:21:13.168Z,8.35
2022-11-14T17:25:35.790Z,8.32
2022-11-14T17:29:57.243Z,8.33
2022-11-14T17:34:19.015Z,8.31
2022-11-14T17:38:40.732Z,8.28
2022-11-14T17:43:03.548Z,8.21
2022-11-14T17:47:25.514Z,8.03
2022-11-14T17:51:47.390Z,7.84
2022-11-14T17:56:13.992Z,7.68
2022-11-14T18:00:37.164Z,7.65
2022-11-14T18:04:59.190Z,7.57
2022-11-14T18:09:20.579Z,7.39
2022-11-14T18:13:42.506Z,7.22
2022-11-14T18:18:05.666Z,7.19
2022-11-14T18:22:27.774Z,7.14
2022-11-14T18:26:49.467Z,7.11
2022-11-14T18:31:13.364Z,7.03
2022-11-14T18:35:36.607Z,6.90
2022-11-14T18:39:58.053Z,6.80
2022-11-14T18:44:21.182Z,6.73
2022-11-14T18:48:44.555Z,6.62
2022-11-14T18:53:07.203Z,6.54
2022-11-14T18:57:28.976Z,6.48
2022-11-14T19:01:50.767Z,6.42
2022-11-14T19:06:13.999Z,6.40
2022-11-14T19:10:37.131Z,6.38
2022-11-14T19:14:58.797Z,6.27
2022-11-14T19:19:20.058Z,6.13
2022-11-14T19:23:41.844Z,6.19
2022-11-14T19:28:04.791Z,6.17
2022-11-14T19:32:26.382Z,6.16
2022-11-14T19:37:02.988Z,6.07
2022-11-14T19:41:26.887Z,6.06
2022-11-14T19:45:49.915Z,5.94
2022-11-14T19:50:11.789Z,6.01
2022-11-14T19:54:33.225Z,5.84
2022-11-14T19:58:56.334Z,5.83
2022-11-14T20:03:19.339Z,5.86
2022-11-14T20:07:40.803Z,5.96
2022-11-14T20:12:03.026Z,6.05
2022-11-14T20:16:27.973Z,6.02
2022-11-14T20:20:50.530Z,6.19
2022-11-14T20:25:15.734Z,6.30
2022-11-14T20:29:37.327Z,6.48
2022-11-14T20:33:59.962Z,6.58
2022-11-14T20:38:23.415Z,6.69
2022-11-14T20:42:48.295Z,6.83
2022-11-14T20:47:11.322Z,6.92
2022-11-14T20:51:33.536Z,7.04
2022-11-14T20:55:56.315Z,7.13
2022-11-14T21:00:18.757Z,7.24
2022-11-14T21:04:40.278Z,7.32
2022-11-14T21:09:01.666Z,7.38
2022-11-14T21:13:41.810Z,7.46
2022-11-14T21:18:03.228Z,7.54
2022-11-14T21:22:24.921Z,7.64
2022-11-14T21:26:46.563Z,7.71
2022-11-14T21:31:20.893Z,7.78
2022-11-14T21:35:42.629Z,7.81
2022-11-14T21:40:05.386Z,7.85
2022-11-14T21:44:26.719Z,7.92
2022-11-14T21:48:50.327Z,8.00
2022-11-14T21:53:16.278Z,8.13
2022-11-14T21:57:38.360Z,8.18
2022-11-14T22:02:17.173Z,8.23
2022-11-14T22:06:41.475Z,8.26
2022-11-14T22:11:03.544Z,8.32
2022-11-14T22:15:25.156Z,8.40
2022-11-14T22:19:46.824Z,8.39
2022-11-14T22:24:09.661Z,8.52
2022-11-14T22:28:31.498Z,8.52
2022-11-14T22:32:53.188Z,8.55
2022-11-14T22:37:15.090Z,8.56
2022-11-14T22:41:38.012Z,8.56
2022-11-14T22:46:00.614Z,8.65
2022-11-14T22:50:22.055Z,8.67
2022-11-14T22:54:43.875Z,8.72
2022-11-14T22:59:06.532Z,8.74
2022-11-14T23:03:29.500Z,8.78
2022-11-14T23:07:51.252Z,8.84
2022-11-14T23:12:12.484Z,8.87
2022-11-14T23:16:35.231Z,8.93
2022-11-14T23:20:56.571Z,8.94
2022-11-14T23:25:18.266Z,9.02
2022-11-14T23:29:39.875Z,9.06
2022-11-14T23:34:02.640Z,9.11
2022-11-14T23:38:23.927Z,9.15
2022-11-14T23:42:45.551Z,9.13
2022-11-14T23:47:06.968Z,9.21
2022-11-14T23:51:29.930Z,9.21
2022-11-14T23:55:54.552Z,9.26
